sensor_id;sensor_type;location;lat;lon;timestamp;P1;durP1;ratioP1;P2;durP2;ratioP2
4794;SDS011;2411;47.060;15.064;2022-08-21T00:00:13;0.67;;;0.67;;
4794;SDS011;2411;47.060;15.064;2022-08-21T00:03:05;1.63;;;0.70;;
4794;SDS011;2411;47.060;15.064;2022-08-21T00:05:33;0.60;;;0.60;;
4794;SDS011;2411;47.060;15.064;2022-08-21T00:08:03;0.60;;;0.60;;
4794;SDS011;2411;47.060;15.064;2022-08-21T00:10:30;0.50;;;0.50;;
4794;SDS011;2411;47.060;15.064;2022-08-21T00:12:57;0.60;;;0.60;;
4794;SDS011;2411;47.060;15.064;2022-08-21T00:15:27;0.57;;;0.57;;
4794;SDS011;2411;47.060;15.064;2022-08-21T00:17:56;0.70;;;0.70;;
4794;SDS011;2411;47.060;15.064;2022-08-21T00:20:23;0.60;;;0.60;;
4794;SDS011;2411;47.060;15.064;2022-08-21T00:22:50;0.93;;;0.70;;
4794;SDS011;2411;47.060;15.064;2022-08-21T00:25:19;2.40;;;0.60;;
4794;SDS011;2411;47.060;15.064;2022-08-21T00:27:51;1.63;;;0.80;;
4794;SDS011;2411;47.060;15.064;2022-08-21T00:30:19;1.10;;;0.73;;
4794;SDS011;2411;47.060;15.064;2022-08-21T00:32:49;0.50;;;0.50;;
4794;SDS011;2411;47.060;15.064;2022-08-21T00:35:18;0.50;;;0.50;;
4794;SDS011;2411;47.060;15.064;2022-08-21T00:37:47;0.60;;;0.60;;
4794;SDS011;2411;47.060;15.064;2022-08-21T00:40:15;0.60;;;0.60;;
4794;SDS011;2411;47.060;15.064;2022-08-21T00:42:45;0.90;;;0.77;;
4794;SDS011;2411;47.060;15.064;2022-08-21T00:45:19;0.60;;;0.60;;
4794;SDS011;2411;47.060;15.064;2022-08-21T00:47:48;0.80;;;0.70;;
4794;SDS011;2411;47.060;15.064;2022-08-21T00:50:16;1.17;;;0.73;;
4794;SDS011;2411;47.060;15.064;2022-08-21T00:52:47;0.60;;;0.60;;
4794;SDS011;2411;47.060;15.064;2022-08-21T00:55:17;0.60;;;0.60;;
4794;SDS011;2411;47.060;15.064;2022-08-21T00:57:50;2.97;;;0.60;;
4794;SDS011;2411;47.060;15.064;2022-08-21T01:00:22;0.60;;;0.60;;
4794;SDS011;2411;47.060;15.064;2022-08-21T01:02:55;1.33;;;0.70;;
4794;SDS011;2411;47.060;15.064;2022-08-21T01:05:24;0.80;;;0.60;;
4794;SDS011;2411;47.060;15.064;2022-08-21T01:07:51;0.67;;;0.67;;
4794;SDS011;2411;47.060;15.064;2022-08-21T01:10:18;2.60;;;0.63;;
4794;SDS011;2411;47.060;15.064;2022-08-21T01:12:50;0.77;;;0.77;;
4794;SDS011;2411;47.060;15.064;2022-08-21T01:15:19;0.77;;;0.70;;
4794;SDS011;2411;47.060;15.064;2022-08-21T01:17:49;0.73;;;0.73;;
4794;SDS011;2411;47.060;15.064;2022-08-21T01:20:16;2.00;;;0.70;;
4794;SDS011;2411;47.060;15.064;2022-08-21T01:22:43;0.70;;;0.70;;
4794;SDS011;2411;47.060;15.064;2022-08-21T01:25:11;0.60;;;0.60;;
4794;SDS011;2411;47.060;15.064;2022-08-21T01:27:41;1.10;;;0.70;;
4794;SDS011;2411;47.060;15.064;2022-08-21T01:30:10;1.00;;;0.63;;
4794;SDS011;2411;47.060;15.064;2022-08-21T01:32:49;0.70;;;0.70;;
4794;SDS011;2411;47.060;15.064;2022-08-21T01:35:18;0.77;;;0.67;;
4794;SDS011;2411;47.060;15.064;2022-08-21T01:37:46;0.60;;;0.60;;
4794;SDS011;2411;47.060;15.064;2022-08-21T01:40:14;0.60;;;0.60;;
4794;SDS011;2411;47.060;15.064;2022-08-21T01:42:43;0.67;;;0.67;;
4794;SDS011;2411;47.060;15.064;2022-08-21T01:45:10;0.70;;;0.70;;
4794;SDS011;2411;47.060;15.064;2022-08-21T01:47:38;0.80;;;0.67;;
4794;SDS011;2411;47.060;15.064;2022-08-21T01:50:06;0.70;;;0.70;;
4794;SDS011;2411;47.060;15.064;2022-08-21T01:52:36;0.80;;;0.80;;
4794;SDS011;2411;47.060;15.064;2022-08-21T01:55:04;0.80;;;0.80;;
4794;SDS011;2411;47.060;15.064;2022-08-21T01:57:32;0.70;;;0.70;;
4794;SDS011;2411;47.060;15.064;2022-08-21T02:00:00;1.77;;;0.70;;
4794;SDS011;2411;47.060;15.064;2022-08-21T02:02:27;0.70;;;0.70;;
4794;SDS011;2411;47.060;15.064;2022-08-21T02:04:54;2.73;;;0.77;;
4794;SDS011;2411;47.060;15.064;2022-08-21T02:07:21;3.03;;;0.70;;
4794;SDS011;2411;47.060;15.064;2022-08-21T02:09:48;0.60;;;0.60;;
4794;SDS011;2411;47.060;15.064;2022-08-21T02:12:15;0.70;;;0.70;;
4794;SDS011;2411;47.060;15.064;2022-08-21T02:14:42;0.80;;;0.80;;
4794;SDS011;2411;47.060;15.064;2022-08-21T02:17:09;0.70;;;0.70;;
4794;SDS011;2411;47.060;15.064;2022-08-21T02:19:37;0.73;;;0.73;;
4794;SDS011;2411;47.060;15.064;2022-08-21T02:22:07;0.70;;;0.70;;
4794;SDS011;2411;47.060;15.064;2022-08-21T02:24:36;0.70;;;0.70;;
4794;SDS011;2411;47.060;15.064;2022-08-21T02:27:20;0.70;;;0.70;;
4794;SDS011;2411;47.060;15.064;2022-08-21T02:29:52;0.70;;;0.70;;
4794;SDS011;2411;47.060;15.064;2022-08-21T02:32:23;1.07;;;0.80;;
4794;SDS011;2411;47.060;15.064;2022-08-21T02:34:52;0.70;;;0.70;;
4794;SDS011;2411;47.060;15.064;2022-08-21T02:37:19;0.80;;;0.80;;
4794;SDS011;2411;47.060;15.064;2022-08-21T02:39:46;1.30;;;0.87;;
4794;SDS011;2411;47.060;15.064;2022-08-21T02:42:13;0.77;;;0.77;;
4794;SDS011;2411;47.060;15.064;2022-08-21T02:44:40;0.70;;;0.70;;
4794;SDS011;2411;47.060;15.064;2022-08-21T02:47:07;0.80;;;0.80;;
4794;SDS011;2411;47.060;15.064;2022-08-21T02:49:34;0.73;;;0.73;;
4794;SDS011;2411;47.060;15.064;2022-08-21T02:52:01;0.73;;;0.73;;
4794;SDS011;2411;47.060;15.064;2022-08-21T02:54:28;0.70;;;0.70;;
4794;SDS011;2411;47.060;15.064;2022-08-21T02:56:55;0.70;;;0.70;;
4794;SDS011;2411;47.060;15.064;2022-08-21T02:59:21;0.70;;;0.70;;
4794;SDS011;2411;47.060;15.064;2022-08-21T03:01:48;0.93;;;0.83;;
4794;SDS011;2411;47.060;15.064;2022-08-21T03:04:15;0.60;;;0.60;;
4794;SDS011;2411;47.060;15.064;2022-08-21T03:06:42;0.80;;;0.80;;
4794;SDS011;2411;47.060;15.064;2022-08-21T03:09:09;0.87;;;0.87;;
4794;SDS011;2411;47.060;15.064;2022-08-21T03:11:36;0.70;;;0.70;;
4794;SDS011;2411;47.060;15.064;2022-08-21T03:14:03;0.80;;;0.80;;
4794;SDS011;2411;47.060;15.064;2022-08-21T03:16:31;0.70;;;0.70;;
4794;SDS011;2411;47.060;15.064;2022-08-21T03:19:00;0.80;;;0.80;;
4794;SDS011;2411;47.060;15.064;2022-08-21T03:21:28;4.73;;;0.80;;
4794;SDS011;2411;47.060;15.064;2022-08-21T03:23:55;1.17;;;0.90;;
4794;SDS011;2411;47.060;15.064;2022-08-21T03:26:22;2.07;;;0.93;;
4794;SDS011;2411;47.060;15.064;2022-08-21T03:28:50;1.23;;;1.00;;
4794;SDS011;2411;47.060;15.064;2022-08-21T03:31:17;0.80;;;0.80;;
4794;SDS011;2411;47.060;15.064;2022-08-21T03:33:44;0.70;;;0.70;;
4794;SDS011;2411;47.060;15.064;2022-08-21T03:36:11;0.80;;;0.80;;
4794;SDS011;2411;47.060;15.064;2022-08-21T03:38:39;0.77;;;0.77;;
4794;SDS011;2411;47.060;15.064;2022-08-21T03:41:06;1.00;;;1.00;;
4794;SDS011;2411;47.060;15.064;2022-08-21T03:43:34;3.53;;;1.63;;
4794;SDS011;2411;47.060;15.064;2022-08-21T03:46:02;0.80;;;0.80;;
4794;SDS011;2411;47.060;15.064;2022-08-21T03:48:30;0.70;;;0.70;;
4794;SDS011;2411;47.060;15.064;2022-08-21T03:50:58;0.90;;;0.90;;
4794;SDS011;2411;47.060;15.064;2022-08-21T03:53:25;0.90;;;0.70;;
4794;SDS011;2411;47.060;15.064;2022-08-21T03:55:53;0.90;;;0.90;;
4794;SDS011;2411;47.060;15.064;2022-08-21T03:58:21;0.90;;;0.90;;
4794;SDS011;2411;47.060;15.064;2022-08-21T04:00:51;0.80;;;0.80;;
4794;SDS011;2411;47.060;15.064;2022-08-21T04:03:20;0.90;;;0.90;;
4794;SDS011;2411;47.060;15.064;2022-08-21T04:05:47;0.90;;;0.90;;
4794;SDS011;2411;47.060;15.064;2022-08-21T04:08:14;0.80;;;0.77;;
4794;SDS011;2411;47.060;15.064;2022-08-21T04:10:45;0.80;;;0.80;;
4794;SDS011;2411;47.060;15.064;2022-08-21T04:13:14;0.90;;;0.90;;
4794;SDS011;2411;47.060;15.064;2022-08-21T04:15:41;0.93;;;0.93;;
4794;SDS011;2411;47.060;15.064;2022-08-21T04:18:08;0.80;;;0.80;;
4794;SDS011;2411;47.060;15.064;2022-08-21T04:20:36;0.80;;;0.80;;
4794;SDS011;2411;47.060;15.064;2022-08-21T04:23:03;0.90;;;0.90;;
4794;SDS011;2411;47.060;15.064;2022-08-21T04:25:30;0.90;;;0.90;;
4794;SDS011;2411;47.060;15.064;2022-08-21T04:27:57;0.90;;;0.90;;
4794;SDS011;2411;47.060;15.064;2022-08-21T04:30:25;0.90;;;0.90;;
4794;SDS011;2411;47.060;15.064;2022-08-21T04:32:54;0.83;;;0.83;;
4794;SDS011;2411;47.060;15.064;2022-08-21T04:35:24;0.87;;;0.87;;
4794;SDS011;2411;47.060;15.064;2022-08-21T04:37:52;0.90;;;0.90;;
4794;SDS011;2411;47.060;15.064;2022-08-21T04:40:20;0.80;;;0.80;;
4794;SDS011;2411;47.060;15.064;2022-08-21T04:42:49;0.70;;;0.70;;
4794;SDS011;2411;47.060;15.064;2022-08-21T04:45:26;2.13;;;1.00;;
4794;SDS011;2411;47.060;15.064;2022-08-21T04:47:56;0.80;;;0.80;;
4794;SDS011;2411;47.060;15.064;2022-08-21T04:50:36;1.00;;;1.00;;
4794;SDS011;2411;47.060;15.064;2022-08-21T04:53:15;0.77;;;0.77;;
4794;SDS011;2411;47.060;15.064;2022-08-21T04:55:46;1.10;;;1.07;;
4794;SDS011;2411;47.060;15.064;2022-08-21T04:58:14;0.80;;;0.80;;
4794;SDS011;2411;47.060;15.064;2022-08-21T05:00:45;0.90;;;0.70;;
4794;SDS011;2411;47.060;15.064;2022-08-21T05:03:12;0.90;;;0.90;;
4794;SDS011;2411;47.060;15.064;2022-08-21T05:05:42;0.90;;;0.90;;
4794;SDS011;2411;47.060;15.064;2022-08-21T05:08:11;0.90;;;0.90;;
4794;SDS011;2411;47.060;15.064;2022-08-21T05:10:41;0.90;;;0.90;;
4794;SDS011;2411;47.060;15.064;2022-08-21T05:13:11;0.70;;;0.70;;
4794;SDS011;2411;47.060;15.064;2022-08-21T05:15:39;0.90;;;0.90;;
4794;SDS011;2411;47.060;15.064;2022-08-21T05:18:06;0.80;;;0.80;;
4794;SDS011;2411;47.060;15.064;2022-08-21T05:20:33;0.70;;;0.70;;
4794;SDS011;2411;47.060;15.064;2022-08-21T05:23:01;1.00;;;1.00;;
4794;SDS011;2411;47.060;15.064;2022-08-21T05:25:36;0.93;;;0.93;;
4794;SDS011;2411;47.060;15.064;2022-08-21T05:28:04;1.17;;;1.07;;
4794;SDS011;2411;47.060;15.064;2022-08-21T05:30:32;1.17;;;1.17;;
4794;SDS011;2411;47.060;15.064;2022-08-21T05:33:00;1.20;;;1.10;;
4794;SDS011;2411;47.060;15.064;2022-08-21T05:35:28;0.93;;;0.93;;
4794;SDS011;2411;47.060;15.064;2022-08-21T05:37:56;2.07;;;1.20;;
4794;SDS011;2411;47.060;15.064;2022-08-21T05:40:23;0.90;;;0.90;;
4794;SDS011;2411;47.060;15.064;2022-08-21T05:42:51;1.07;;;1.07;;
4794;SDS011;2411;47.060;15.064;2022-08-21T05:45:24;0.83;;;0.83;;
4794;SDS011;2411;47.060;15.064;2022-08-21T05:48:10;1.07;;;0.97;;
4794;SDS011;2411;47.060;15.064;2022-08-21T05:50:43;0.73;;;0.73;;
4794;SDS011;2411;47.060;15.064;2022-08-21T05:53:10;0.70;;;0.70;;
4794;SDS011;2411;47.060;15.064;2022-08-21T05:55:39;0.70;;;0.70;;
4794;SDS011;2411;47.060;15.064;2022-08-21T05:58:12;0.90;;;0.90;;
4794;SDS011;2411;47.060;15.064;2022-08-21T06:00:40;0.80;;;0.80;;
4794;SDS011;2411;47.060;15.064;2022-08-21T06:03:12;0.80;;;0.80;;
4794;SDS011;2411;47.060;15.064;2022-08-21T06:05:43;0.90;;;0.90;;
4794;SDS011;2411;47.060;15.064;2022-08-21T06:08:12;1.47;;;0.90;;
4794;SDS011;2411;47.060;15.064;2022-08-21T06:10:39;1.00;;;1.00;;
4794;SDS011;2411;47.060;15.064;2022-08-21T06:13:06;1.03;;;0.97;;
4794;SDS011;2411;47.060;15.064;2022-08-21T06:15:33;0.80;;;0.80;;
4794;SDS011;2411;47.060;15.064;2022-08-21T06:18:00;0.80;;;0.80;;
4794;SDS011;2411;47.060;15.064;2022-08-21T06:20:27;0.80;;;0.80;;
4794;SDS011;2411;47.060;15.064;2022-08-21T06:22:54;0.73;;;0.73;;
4794;SDS011;2411;47.060;15.064;2022-08-21T06:25:21;0.90;;;0.90;;
4794;SDS011;2411;47.060;15.064;2022-08-21T06:27:48;1.60;;;0.80;;
4794;SDS011;2411;47.060;15.064;2022-08-21T06:30:15;0.90;;;0.90;;
4794;SDS011;2411;47.060;15.064;2022-08-21T06:32:42;0.80;;;0.80;;
4794;SDS011;2411;47.060;15.064;2022-08-21T06:35:10;0.90;;;0.90;;
4794;SDS011;2411;47.060;15.064;2022-08-21T06:37:37;0.80;;;0.80;;
4794;SDS011;2411;47.060;15.064;2022-08-21T06:40:04;0.80;;;0.80;;
4794;SDS011;2411;47.060;15.064;2022-08-21T06:42:38;0.80;;;0.80;;
4794;SDS011;2411;47.060;15.064;2022-08-21T06:45:08;0.80;;;0.80;;
4794;SDS011;2411;47.060;15.064;2022-08-21T06:47:35;0.93;;;0.80;;
4794;SDS011;2411;47.060;15.064;2022-08-21T06:50:02;0.80;;;0.80;;
4794;SDS011;2411;47.060;15.064;2022-08-21T06:52:34;1.30;;;0.73;;
4794;SDS011;2411;47.060;15.064;2022-08-21T06:55:04;1.50;;;0.83;;
4794;SDS011;2411;47.060;15.064;2022-08-21T06:57:33;0.90;;;0.90;;
4794;SDS011;2411;47.060;15.064;2022-08-21T07:00:00;0.80;;;0.80;;
4794;SDS011;2411;47.060;15.064;2022-08-21T07:02:31;1.83;;;0.80;;
4794;SDS011;2411;47.060;15.064;2022-08-21T07:04:59;0.90;;;0.90;;
4794;SDS011;2411;47.060;15.064;2022-08-21T07:07:42;1.90;;;0.80;;
4794;SDS011;2411;47.060;15.064;2022-08-21T07:10:09;0.80;;;0.77;;
4794;SDS011;2411;47.060;15.064;2022-08-21T07:12:47;0.63;;;0.63;;
4794;SDS011;2411;47.060;15.064;2022-08-21T07:15:17;0.70;;;0.70;;
4794;SDS011;2411;47.060;15.064;2022-08-21T07:17:44;0.60;;;0.60;;
4794;SDS011;2411;47.060;15.064;2022-08-21T07:20:11;0.93;;;0.80;;
4794;SDS011;2411;47.060;15.064;2022-08-21T07:22:39;0.70;;;0.70;;
4794;SDS011;2411;47.060;15.064;2022-08-21T07:25:07;0.63;;;0.63;;
4794;SDS011;2411;47.060;15.064;2022-08-21T07:27:34;0.67;;;0.67;;
4794;SDS011;2411;47.060;15.064;2022-08-21T07:30:03;0.70;;;0.70;;
4794;SDS011;2411;47.060;15.064;2022-08-21T07:32:30;0.80;;;0.80;;
4794;SDS011;2411;47.060;15.064;2022-08-21T07:34:57;0.93;;;0.70;;
4794;SDS011;2411;47.060;15.064;2022-08-21T07:37:24;0.70;;;0.70;;
4794;SDS011;2411;47.060;15.064;2022-08-21T07:39:51;1.00;;;0.80;;
4794;SDS011;2411;47.060;15.064;2022-08-21T07:42:18;3.17;;;1.00;;
4794;SDS011;2411;47.060;15.064;2022-08-21T07:44:45;0.87;;;0.80;;
4794;SDS011;2411;47.060;15.064;2022-08-21T07:47:15;1.10;;;1.00;;
4794;SDS011;2411;47.060;15.064;2022-08-21T07:50:03;0.70;;;0.70;;
4794;SDS011;2411;47.060;15.064;2022-08-21T07:52:31;0.90;;;0.70;;
4794;SDS011;2411;47.060;15.064;2022-08-21T07:54:59;0.67;;;0.60;;
4794;SDS011;2411;47.060;15.064;2022-08-21T07:57:31;0.87;;;0.80;;
4794;SDS011;2411;47.060;15.064;2022-08-21T07:59:58;0.80;;;0.80;;
4794;SDS011;2411;47.060;15.064;2022-08-21T08:02:26;0.93;;;0.60;;
4794;SDS011;2411;47.060;15.064;2022-08-21T08:04:58;0.60;;;0.60;;
4794;SDS011;2411;47.060;15.064;2022-08-21T08:07:30;1.10;;;0.80;;
4794;SDS011;2411;47.060;15.064;2022-08-21T08:09:57;0.60;;;0.60;;
4794;SDS011;2411;47.060;15.064;2022-08-21T08:12:24;0.70;;;0.70;;
4794;SDS011;2411;47.060;15.064;2022-08-21T08:14:59;0.60;;;0.60;;
4794;SDS011;2411;47.060;15.064;2022-08-21T08:17:27;3.90;;;0.70;;
4794;SDS011;2411;47.060;15.064;2022-08-21T08:19:54;0.70;;;0.70;;
4794;SDS011;2411;47.060;15.064;2022-08-21T08:22:22;0.77;;;0.77;;
4794;SDS011;2411;47.060;15.064;2022-08-21T08:24:50;0.73;;;0.73;;
4794;SDS011;2411;47.060;15.064;2022-08-21T08:27:18;0.83;;;0.83;;
4794;SDS011;2411;47.060;15.064;2022-08-21T08:29:46;1.03;;;0.90;;
4794;SDS011;2411;47.060;15.064;2022-08-21T08:32:13;0.93;;;0.70;;
4794;SDS011;2411;47.060;15.064;2022-08-21T08:34:41;0.70;;;0.70;;
4794;SDS011;2411;47.060;15.064;2022-08-21T08:37:08;0.60;;;0.60;;
4794;SDS011;2411;47.060;15.064;2022-08-21T08:39:36;0.80;;;0.80;;
4794;SDS011;2411;47.060;15.064;2022-08-21T08:42:07;0.80;;;0.80;;
4794;SDS011;2411;47.060;15.064;2022-08-21T08:47:29;1.07;;;0.80;;
4794;SDS011;2411;47.060;15.064;2022-08-21T08:50:21;0.73;;;0.73;;
4794;SDS011;2411;47.060;15.064;2022-08-21T08:58:06;2.00;;;0.80;;
4794;SDS011;2411;47.060;15.064;2022-08-21T09:00:37;0.80;;;0.80;;
4794;SDS011;2411;47.060;15.064;2022-08-21T09:03:04;0.70;;;0.70;;
4794;SDS011;2411;47.060;15.064;2022-08-21T09:08:29;0.83;;;0.63;;
4794;SDS011;2411;47.060;15.064;2022-08-21T09:11:04;0.70;;;0.70;;
4794;SDS011;2411;47.060;15.064;2022-08-21T09:27:18;0.70;;;0.70;;
4794;SDS011;2411;47.060;15.064;2022-08-21T09:29:48;0.97;;;0.60;;
4794;SDS011;2411;47.060;15.064;2022-08-21T09:32:19;0.50;;;0.50;;
4794;SDS011;2411;47.060;15.064;2022-08-21T09:37:45;1.03;;;0.70;;
4794;SDS011;2411;47.060;15.064;2022-08-21T09:43:01;0.70;;;0.70;;
4794;SDS011;2411;47.060;15.064;2022-08-21T09:45:31;2.20;;;0.70;;
4794;SDS011;2411;47.060;15.064;2022-08-21T09:48:17;0.73;;;0.73;;
4794;SDS011;2411;47.060;15.064;2022-08-21T09:50:52;0.60;;;0.60;;
4794;SDS011;2411;47.060;15.064;2022-08-21T09:53:21;0.60;;;0.60;;
4794;SDS011;2411;47.060;15.064;2022-08-21T09:56:02;0.60;;;0.60;;
4794;SDS011;2411;47.060;15.064;2022-08-21T09:58:50;0.80;;;0.80;;
4794;SDS011;2411;47.060;15.064;2022-08-21T10:01:20;1.53;;;0.70;;
4794;SDS011;2411;47.060;15.064;2022-08-21T10:04:01;0.93;;;0.70;;
4794;SDS011;2411;47.060;15.064;2022-08-21T10:06:33;0.70;;;0.70;;
4794;SDS011;2411;47.060;15.064;2022-08-21T10:11:31;0.67;;;0.67;;
4794;SDS011;2411;47.060;15.064;2022-08-21T10:14:20;0.60;;;0.60;;
4794;SDS011;2411;47.060;15.064;2022-08-21T10:22:23;0.60;;;0.60;;
4794;SDS011;2411;47.060;15.064;2022-08-21T10:45:31;1.00;;;0.60;;
4794;SDS011;2411;47.060;15.064;2022-08-21T10:47:44;0.60;;;0.60;;
4794;SDS011;2411;47.060;15.064;2022-08-21T10:53:22;0.80;;;0.80;;
4794;SDS011;2411;47.060;15.064;2022-08-21T10:55:56;0.63;;;0.60;;
4794;SDS011;2411;47.060;15.064;2022-08-21T10:58:29;0.70;;;0.70;;
4794;SDS011;2411;47.060;15.064;2022-08-21T11:01:07;1.23;;;0.77;;
4794;SDS011;2411;47.060;15.064;2022-08-21T11:03:42;10.63;;;3.60;;
4794;SDS011;2411;47.060;15.064;2022-08-21T11:06:22;1.53;;;0.70;;
4794;SDS011;2411;47.060;15.064;2022-08-21T11:08:52;0.70;;;0.70;;
4794;SDS011;2411;47.060;15.064;2022-08-21T11:11:34;0.50;;;0.50;;
4794;SDS011;2411;47.060;15.064;2022-08-21T11:18:37;0.70;;;0.70;;
4794;SDS011;2411;47.060;15.064;2022-08-21T11:23:59;1.03;;;0.67;;
4794;SDS011;2411;47.060;15.064;2022-08-21T11:29:38;0.77;;;0.70;;
4794;SDS011;2411;47.060;15.064;2022-08-21T11:43:20;0.70;;;0.70;;
4794;SDS011;2411;47.060;15.064;2022-08-21T11:46:12;0.77;;;0.70;;
4794;SDS011;2411;47.060;15.064;2022-08-21T12:00:05;0.80;;;0.80;;
4794;SDS011;2411;47.060;15.064;2022-08-21T12:02:38;0.60;;;0.60;;
4794;SDS011;2411;47.060;15.064;2022-08-21T12:05:11;1.90;;;0.70;;
4794;SDS011;2411;47.060;15.064;2022-08-21T12:07:59;0.63;;;0.63;;
4794;SDS011;2411;47.060;15.064;2022-08-21T12:10:32;4.90;;;0.73;;
4794;SDS011;2411;47.060;15.064;2022-08-21T12:13:06;1.53;;;0.70;;
4794;SDS011;2411;47.060;15.064;2022-08-21T12:16:10;0.70;;;0.70;;
4794;SDS011;2411;47.060;15.064;2022-08-21T12:18:40;0.80;;;0.80;;
4794;SDS011;2411;47.060;15.064;2022-08-21T12:29:03;1.73;;;0.83;;
4794;SDS011;2411;47.060;15.064;2022-08-21T12:31:47;1.00;;;1.00;;
4794;SDS011;2411;47.060;15.064;2022-08-21T12:34:20;0.97;;;0.80;;
4794;SDS011;2411;47.060;15.064;2022-08-21T12:36:57;1.80;;;0.90;;
4794;SDS011;2411;47.060;15.064;2022-08-21T12:39:31;0.80;;;0.80;;
4794;SDS011;2411;47.060;15.064;2022-08-21T12:42:05;0.90;;;0.90;;
4794;SDS011;2411;47.060;15.064;2022-08-21T12:44:38;0.80;;;0.80;;
4794;SDS011;2411;47.060;15.064;2022-08-21T12:47:21;1.23;;;0.90;;
4794;SDS011;2411;47.060;15.064;2022-08-21T12:50:04;0.80;;;0.80;;
4794;SDS011;2411;47.060;15.064;2022-08-21T12:52:51;1.27;;;0.90;;
4794;SDS011;2411;47.060;15.064;2022-08-21T12:55:29;0.60;;;0.53;;
4794;SDS011;2411;47.060;15.064;2022-08-21T12:57:58;0.70;;;0.70;;
4794;SDS011;2411;47.060;15.064;2022-08-21T13:00:27;0.70;;;0.70;;
4794;SDS011;2411;47.060;15.064;2022-08-21T13:02:56;0.60;;;0.60;;
4794;SDS011;2411;47.060;15.064;2022-08-21T13:05:31;0.87;;;0.70;;
4794;SDS011;2411;47.060;15.064;2022-08-21T13:08:05;0.60;;;0.60;;
4794;SDS011;2411;47.060;15.064;2022-08-21T13:10:34;2.23;;;0.87;;
4794;SDS011;2411;47.060;15.064;2022-08-21T13:13:19;0.97;;;0.73;;
4794;SDS011;2411;47.060;15.064;2022-08-21T13:15:57;0.80;;;0.70;;
4794;SDS011;2411;47.060;15.064;2022-08-21T13:18:28;1.23;;;1.00;;
4794;SDS011;2411;47.060;15.064;2022-08-21T13:21:09;0.70;;;0.70;;
4794;SDS011;2411;47.060;15.064;2022-08-21T13:23:41;0.70;;;0.70;;
4794;SDS011;2411;47.060;15.064;2022-08-21T13:26:14;0.80;;;0.80;;
4794;SDS011;2411;47.060;15.064;2022-08-21T13:28:46;0.70;;;0.70;;
4794;SDS011;2411;47.060;15.064;2022-08-21T13:31:28;0.70;;;0.70;;
4794;SDS011;2411;47.060;15.064;2022-08-21T13:33:57;1.17;;;0.70;;
4794;SDS011;2411;47.060;15.064;2022-08-21T13:36:25;1.47;;;0.90;;
4794;SDS011;2411;47.060;15.064;2022-08-21T13:39:00;0.80;;;0.80;;
4794;SDS011;2411;47.060;15.064;2022-08-21T13:41:32;0.70;;;0.70;;
4794;SDS011;2411;47.060;15.064;2022-08-21T13:44:04;0.90;;;0.90;;
4794;SDS011;2411;47.060;15.064;2022-08-21T13:46:45;0.83;;;0.70;;
4794;SDS011;2411;47.060;15.064;2022-08-21T13:49:16;0.77;;;0.77;;
4794;SDS011;2411;47.060;15.064;2022-08-21T13:51:45;0.93;;;0.83;;
4794;SDS011;2411;47.060;15.064;2022-08-21T13:54:15;0.60;;;0.60;;
4794;SDS011;2411;47.060;15.064;2022-08-21T13:56:43;0.93;;;0.77;;
4794;SDS011;2411;47.060;15.064;2022-08-21T13:59:12;0.80;;;0.80;;
4794;SDS011;2411;47.060;15.064;2022-08-21T14:01:56;0.73;;;0.73;;
4794;SDS011;2411;47.060;15.064;2022-08-21T14:04:31;0.80;;;0.80;;
4794;SDS011;2411;47.060;15.064;2022-08-21T14:07:01;1.07;;;0.80;;
4794;SDS011;2411;47.060;15.064;2022-08-21T14:09:41;3.60;;;0.80;;
4794;SDS011;2411;47.060;15.064;2022-08-21T14:12:29;0.90;;;0.70;;
4794;SDS011;2411;47.060;15.064;2022-08-21T14:15:17;0.60;;;0.60;;
4794;SDS011;2411;47.060;15.064;2022-08-21T14:17:48;0.60;;;0.60;;
4794;SDS011;2411;47.060;15.064;2022-08-21T14:20:34;3.50;;;0.77;;
4794;SDS011;2411;47.060;15.064;2022-08-21T14:23:02;0.60;;;0.60;;
4794;SDS011;2411;47.060;15.064;2022-08-21T14:25:40;0.70;;;0.70;;
4794;SDS011;2411;47.060;15.064;2022-08-21T14:28:24;0.60;;;0.60;;
4794;SDS011;2411;47.060;15.064;2022-08-21T14:30:55;0.70;;;0.60;;
4794;SDS011;2411;47.060;15.064;2022-08-21T14:33:25;0.70;;;0.70;;
4794;SDS011;2411;47.060;15.064;2022-08-21T14:35:54;0.70;;;0.70;;
4794;SDS011;2411;47.060;15.064;2022-08-21T14:38:22;0.60;;;0.60;;
4794;SDS011;2411;47.060;15.064;2022-08-21T14:40:53;0.80;;;0.80;;
4794;SDS011;2411;47.060;15.064;2022-08-21T14:43:26;0.60;;;0.60;;
4794;SDS011;2411;47.060;15.064;2022-08-21T14:45:54;0.70;;;0.70;;
4794;SDS011;2411;47.060;15.064;2022-08-21T14:48:22;2.10;;;0.70;;
4794;SDS011;2411;47.060;15.064;2022-08-21T14:50:49;0.80;;;0.80;;
4794;SDS011;2411;47.060;15.064;2022-08-21T14:53:15;0.97;;;0.80;;
4794;SDS011;2411;47.060;15.064;2022-08-21T14:55:43;1.27;;;0.80;;
4794;SDS011;2411;47.060;15.064;2022-08-21T14:58:28;0.80;;;0.80;;
4794;SDS011;2411;47.060;15.064;2022-08-21T15:00:55;0.73;;;0.73;;
4794;SDS011;2411;47.060;15.064;2022-08-21T15:03:25;0.83;;;0.83;;
4794;SDS011;2411;47.060;15.064;2022-08-21T15:05:52;1.23;;;1.13;;
4794;SDS011;2411;47.060;15.064;2022-08-21T15:08:19;0.97;;;0.73;;
4794;SDS011;2411;47.060;15.064;2022-08-21T15:10:46;1.00;;;1.00;;
4794;SDS011;2411;47.060;15.064;2022-08-21T15:13:33;1.00;;;0.90;;
4794;SDS011;2411;47.060;15.064;2022-08-21T15:16:02;1.00;;;1.00;;
4794;SDS011;2411;47.060;15.064;2022-08-21T15:18:29;0.93;;;0.93;;
4794;SDS011;2411;47.060;15.064;2022-08-21T15:20:57;0.80;;;0.80;;
4794;SDS011;2411;47.060;15.064;2022-08-21T15:23:24;1.53;;;1.07;;
4794;SDS011;2411;47.060;15.064;2022-08-21T15:25:51;1.30;;;1.20;;
4794;SDS011;2411;47.060;15.064;2022-08-21T15:28:19;1.40;;;1.30;;
4794;SDS011;2411;47.060;15.064;2022-08-21T15:30:48;1.30;;;1.20;;
4794;SDS011;2411;47.060;15.064;2022-08-21T15:33:17;1.43;;;1.27;;
4794;SDS011;2411;47.060;15.064;2022-08-21T15:35:45;2.50;;;1.40;;
4794;SDS011;2411;47.060;15.064;2022-08-21T15:38:12;1.20;;;1.20;;
4794;SDS011;2411;47.060;15.064;2022-08-21T15:40:41;1.00;;;1.00;;
4794;SDS011;2411;47.060;15.064;2022-08-21T15:43:24;1.60;;;1.50;;
4794;SDS011;2411;47.060;15.064;2022-08-21T15:45:55;2.60;;;1.53;;
4794;SDS011;2411;47.060;15.064;2022-08-21T15:48:26;1.20;;;1.20;;
4794;SDS011;2411;47.060;15.064;2022-08-21T15:50:54;1.57;;;1.50;;
4794;SDS011;2411;47.060;15.064;2022-08-21T15:53:21;1.47;;;1.37;;
4794;SDS011;2411;47.060;15.064;2022-08-21T15:55:48;1.67;;;1.57;;
4794;SDS011;2411;47.060;15.064;2022-08-21T15:58:15;1.30;;;1.20;;
4794;SDS011;2411;47.060;15.064;2022-08-21T16:00:43;1.30;;;1.30;;
4794;SDS011;2411;47.060;15.064;2022-08-21T16:03:11;1.57;;;1.47;;
4794;SDS011;2411;47.060;15.064;2022-08-21T16:05:45;1.40;;;1.40;;
4794;SDS011;2411;47.060;15.064;2022-08-21T16:08:15;1.30;;;1.20;;
4794;SDS011;2411;47.060;15.064;2022-08-21T16:10:42;1.70;;;1.60;;
4794;SDS011;2411;47.060;15.064;2022-08-21T16:13:15;1.37;;;1.37;;
4794;SDS011;2411;47.060;15.064;2022-08-21T16:15:46;1.93;;;1.73;;
4794;SDS011;2411;47.060;15.064;2022-08-21T16:18:13;3.37;;;1.47;;
4794;SDS011;2411;47.060;15.064;2022-08-21T16:20:40;1.60;;;1.60;;
4794;SDS011;2411;47.060;15.064;2022-08-21T16:23:07;1.57;;;1.47;;
4794;SDS011;2411;47.060;15.064;2022-08-21T16:25:34;1.70;;;1.57;;
4794;SDS011;2411;47.060;15.064;2022-08-21T16:28:06;1.63;;;1.53;;
4794;SDS011;2411;47.060;15.064;2022-08-21T16:30:37;1.53;;;1.43;;
4794;SDS011;2411;47.060;15.064;2022-08-21T16:33:04;2.00;;;1.90;;
4794;SDS011;2411;47.060;15.064;2022-08-21T16:35:32;1.63;;;1.53;;
4794;SDS011;2411;47.060;15.064;2022-08-21T16:37:59;1.93;;;1.70;;
4794;SDS011;2411;47.060;15.064;2022-08-21T16:40:26;2.10;;;1.50;;
4794;SDS011;2411;47.060;15.064;2022-08-21T16:42:53;1.50;;;1.40;;
4794;SDS011;2411;47.060;15.064;2022-08-21T16:45:21;1.37;;;1.27;;
4794;SDS011;2411;47.060;15.064;2022-08-21T16:47:48;1.43;;;1.33;;
4794;SDS011;2411;47.060;15.064;2022-08-21T16:50:18;1.47;;;1.40;;
4794;SDS011;2411;47.060;15.064;2022-08-21T16:52:47;2.00;;;1.70;;
4794;SDS011;2411;47.060;15.064;2022-08-21T16:55:15;1.50;;;1.40;;
4794;SDS011;2411;47.060;15.064;2022-08-21T16:57:42;2.00;;;1.80;;
4794;SDS011;2411;47.060;15.064;2022-08-21T17:00:10;1.97;;;1.87;;
4794;SDS011;2411;47.060;15.064;2022-08-21T17:02:39;1.67;;;1.57;;